sensor_id;sensor_type;location;lat;lon;timestamp;pressure;altitude;pressure_sealevel;temperature;humidity
42727;BME280;28372;56.832;60.658;2024-01-11T00:02:27;95812.69;;;-15.98;43.91
42727;BME280;28372;56.832;60.658;2024-01-11T00:04:56;95807.53;;;-15.93;44.09
42727;BME280;28372;56.832;60.658;2024-01-11T00:07:24;95802.84;;;-16.01;44.04
42727;BME280;28372;56.832;60.658;2024-01-11T00:09:52;95806.66;;;-16.09;43.88
42727;BME280;28372;56.832;60.658;2024-01-11T00:12:20;95812.31;;;-16.17;43.43
42727;BME280;28372;56.832;60.658;2024-01-11T00:14:48;95829.69;;;-16.13;42.90
42727;BME280;28372;56.832;60.658;2024-01-11T00:17:17;95815.41;;;-16.21;45.74
42727;BME280;28372;56.832;60.658;2024-01-11T00:19:46;95830.81;;;-15.98;42.99
42727;BME280;28372;56.832;60.658;2024-01-11T00:22:18;95822.75;;;-16.02;44.07
42727;BME280;28372;56.832;60.658;2024-01-11T00:24:46;95829.03;;;-15.93;45.52
42727;BME280;28372;56.832;60.658;2024-01-11T00:27:15;95834.53;;;-15.84;44.22
42727;BME280;28372;56.832;60.658;2024-01-11T00:29:43;95831.69;;;-15.77;44.42
42727;BME280;28372;56.832;60.658;2024-01-11T00:32:11;95826.75;;;-15.74;43.69
42727;BME280;28372;56.832;60.658;2024-01-11T00:34:40;95834.03;;;-15.76;42.24
42727;BME280;28372;56.832;60.658;2024-01-11T00:37:09;95816.91;;;-15.77;41.83
42727;BME280;28372;56.832;60.658;2024-01-11T00:39:38;95832.22;;;-15.70;44.09
42727;BME280;28372;56.832;60.658;2024-01-11T00:42:06;95843.34;;;-15.75;43.06
42727;BME280;28372;56.832;60.658;2024-01-11T00:44:35;95846.22;;;-15.76;46.08
42727;BME280;28372;56.832;60.658;2024-01-11T00:47:20;95847.50;;;-15.74;43.06
42727;BME280;28372;56.832;60.658;2024-01-11T00:49:48;95846.72;;;-15.74;43.67
42727;BME280;28372;56.832;60.658;2024-01-11T00:52:16;95844.16;;;-15.69;43.06
42727;BME280;28372;56.832;60.658;2024-01-11T00:54:45;95844.91;;;-15.74;42.76
42727;BME280;28372;56.832;60.658;2024-01-11T00:57:13;95837.38;;;-15.75;42.09
42727;BME280;28372;56.832;60.658;2024-01-11T00:59:40;95834.53;;;-15.74;41.25
42727;BME280;28372;56.832;60.658;2024-01-11T01:02:09;95831.44;;;-15.76;42.68
42727;BME280;28372;56.832;60.658;2024-01-11T01:04:38;95823.41;;;-15.79;43.42
42727;BME280;28372;56.832;60.658;2024-01-11T01:07:08;95828.31;;;-15.83;43.21
42727;BME280;28372;56.832;60.658;2024-01-11T01:09:38;95841.78;;;-15.81;42.96
42727;BME280;28372;56.832;60.658;2024-01-11T01:12:06;95840.47;;;-15.83;43.22
42727;BME280;28372;56.832;60.658;2024-01-11T01:14:34;95825.66;;;-15.93;42.69
42727;BME280;28372;56.832;60.658;2024-01-11T01:17:03;95843.56;;;-15.92;43.24
42727;BME280;28372;56.832;60.658;2024-01-11T01:19:31;95836.22;;;-16.05;43.28
42727;BME280;28372;56.832;60.658;2024-01-11T01:22:00;95832.53;;;-16.14;43.30
42727;BME280;28372;56.832;60.658;2024-01-11T01:24:30;95845.25;;;-16.08;41.31
42727;BME280;28372;56.832;60.658;2024-01-11T01:26:58;95845.19;;;-16.18;43.63
42727;BME280;28372;56.832;60.658;2024-01-11T01:29:26;95841.59;;;-16.12;41.92
42727;BME280;28372;56.832;60.658;2024-01-11T01:31:54;95830.13;;;-16.26;43.09
42727;BME280;28372;56.832;60.658;2024-01-11T01:34:23;95828.50;;;-16.38;41.08
42727;BME280;28372;56.832;60.658;2024-01-11T01:36:51;95808.69;;;-16.54;41.78
42727;BME280;28372;56.832;60.658;2024-01-11T01:39:20;95830.50;;;-16.45;42.51
42727;BME280;28372;56.832;60.658;2024-01-11T01:41:49;95826.16;;;-16.39;43.64
42727;BME280;28372;56.832;60.658;2024-01-11T01:44:18;95847.94;;;-16.35;43.44
42727;BME280;28372;56.832;60.658;2024-01-11T01:46:47;95834.22;;;-16.30;43.95
42727;BME280;28372;56.832;60.658;2024-01-11T01:49:17;95840.94;;;-16.34;43.70
42727;BME280;28372;56.832;60.658;2024-01-11T01:51:51;95834.28;;;-16.20;43.35
42727;BME280;28372;56.832;60.658;2024-01-11T01:54:23;95830.06;;;-16.36;41.71
42727;BME280;28372;56.832;60.658;2024-01-11T01:56:52;95819.81;;;-16.53;43.41
42727;BME280;28372;56.832;60.658;2024-01-11T01:59:20;95833.56;;;-16.53;43.88
42727;BME280;28372;56.832;60.658;2024-01-11T02:01:49;95838.53;;;-16.41;43.46
42727;BME280;28372;56.832;60.658;2024-01-11T02:04:17;95841.38;;;-16.48;42.89
42727;BME280;28372;56.832;60.658;2024-01-11T02:06:46;95850.16;;;-16.44;43.25
42727;BME280;28372;56.832;60.658;2024-01-11T02:09:16;95824.78;;;-16.52;42.73
42727;BME280;28372;56.832;60.658;2024-01-11T02:11:45;95849.75;;;-16.30;44.63
42727;BME280;28372;56.832;60.658;2024-01-11T02:14:13;95839.13;;;-16.34;43.80
42727;BME280;28372;56.832;60.658;2024-01-11T02:16:41;95850.47;;;-16.40;43.59
42727;BME280;28372;56.832;60.658;2024-01-11T02:19:13;95850.75;;;-16.36;43.32
42727;BME280;28372;56.832;60.658;2024-01-11T02:21:42;95848.31;;;-16.48;44.02
42727;BME280;28372;56.832;60.658;2024-01-11T02:24:11;95845.63;;;-16.64;44.18
42727;BME280;28372;56.832;60.658;2024-01-11T02:27:00;95852.22;;;-16.46;43.82
42727;BME280;28372;56.832;60.658;2024-01-11T02:29:29;95848.81;;;-16.51;44.82
42727;BME280;28372;56.832;60.658;2024-01-11T02:32:00;95834.31;;;-16.58;44.72
42727;BME280;28372;56.832;60.658;2024-01-11T02:34:30;95860.56;;;-16.39;43.24
42727;BME280;28372;56.832;60.658;2024-01-11T02:36:58;95858.19;;;-16.45;42.07
42727;BME280;28372;56.832;60.658;2024-01-11T02:39:26;95853.94;;;-16.57;43.41
42727;BME280;28372;56.832;60.658;2024-01-11T02:42:00;95859.41;;;-16.53;43.41
42727;BME280;28372;56.832;60.658;2024-01-11T02:44:31;95853.22;;;-16.52;44.07
42727;BME280;28372;56.832;60.658;2024-01-11T02:46:59;95876.28;;;-16.45;42.51
42727;BME280;28372;56.832;60.658;2024-01-11T02:49:27;95879.69;;;-16.45;45.23
42727;BME280;28372;56.832;60.658;2024-01-11T02:51:55;95880.69;;;-16.46;44.21
42727;BME280;28372;56.832;60.658;2024-01-11T02:54:23;95881.13;;;-16.54;42.32
42727;BME280;28372;56.832;60.658;2024-01-11T02:56:52;95868.50;;;-16.50;43.61
42727;BME280;28372;56.832;60.658;2024-01-11T02:59:20;95896.28;;;-16.41;44.23
42727;BME280;28372;56.832;60.658;2024-01-11T03:01:50;95864.03;;;-16.60;44.74
42727;BME280;28372;56.832;60.658;2024-01-11T03:04:20;95881.69;;;-16.52;44.65
42727;BME280;28372;56.832;60.658;2024-01-11T03:06:48;95883.16;;;-16.61;44.73
42727;BME280;28372;56.832;60.658;2024-01-11T03:09:17;95877.72;;;-16.60;43.68
42727;BME280;28372;56.832;60.658;2024-01-11T03:11:45;95868.69;;;-16.84;44.17
42727;BME280;28372;56.832;60.658;2024-01-11T03:14:13;95891.75;;;-16.83;43.52
42727;BME280;28372;56.832;60.658;2024-01-11T03:16:41;95895.38;;;-16.79;43.42
42727;BME280;28372;56.832;60.658;2024-01-11T03:19:12;95908.53;;;-16.85;42.96
42727;BME280;28372;56.832;60.658;2024-01-11T03:21:43;95905.69;;;-16.84;42.51
42727;BME280;28372;56.832;60.658;2024-01-11T03:24:13;95912.31;;;-16.98;44.82
42727;BME280;28372;56.832;60.658;2024-01-11T03:26:43;95919.31;;;-16.94;45.31
42727;BME280;28372;56.832;60.658;2024-01-11T03:29:11;95920.19;;;-16.83;44.52
42727;BME280;28372;56.832;60.658;2024-01-11T03:31:39;95919.16;;;-16.82;45.20
42727;BME280;28372;56.832;60.658;2024-01-11T03:34:11;95915.25;;;-17.12;44.30
42727;BME280;28372;56.832;60.658;2024-01-11T03:36:40;95910.38;;;-17.30;42.98
42727;BME280;28372;56.832;60.658;2024-01-11T03:39:08;95919.16;;;-17.31;44.45
42727;BME280;28372;56.832;60.658;2024-01-11T03:41:36;95923.16;;;-17.41;45.01
42727;BME280;28372;56.832;60.658;2024-01-11T03:44:04;95909.81;;;-17.32;43.78
42727;BME280;28372;56.832;60.658;2024-01-11T03:46:32;95923.47;;;-17.37;44.01
42727;BME280;28372;56.832;60.658;2024-01-11T03:49:00;95919.31;;;-17.38;46.00
42727;BME280;28372;56.832;60.658;2024-01-11T03:51:28;95936.50;;;-17.27;44.76
42727;BME280;28372;56.832;60.658;2024-01-11T03:53:57;95938.16;;;-17.20;46.13
42727;BME280;28372;56.832;60.658;2024-01-11T03:56:28;95934.84;;;-16.94;45.12
42727;BME280;28372;56.832;60.658;2024-01-11T03:58:56;95944.81;;;-17.02;43.77
42727;BME280;28372;56.832;60.658;2024-01-11T04:01:24;95953.34;;;-17.02;44.32
42727;BME280;28372;56.832;60.658;2024-01-11T04:03:52;95956.28;;;-17.15;44.57
42727;BME280;28372;56.832;60.658;2024-01-11T04:06:24;95969.09;;;-17.03;44.87
42727;BME280;28372;56.832;60.658;2024-01-11T04:08:52;95958.09;;;-17.16;44.40
42727;BME280;28372;56.832;60.658;2024-01-11T04:11:19;95959.97;;;-17.11;44.45
42727;BME280;28372;56.832;60.658;2024-01-11T04:13:47;95945.91;;;-17.20;43.80
42727;BME280;28372;56.832;60.658;2024-01-11T04:16:15;95968.38;;;-17.21;43.61
42727;BME280;28372;56.832;60.658;2024-01-11T04:18:43;95966.19;;;-17.29;44.12
42727;BME280;28372;56.832;60.658;2024-01-11T04:21:27;95970.13;;;-17.04;45.10
42727;BME280;28372;56.832;60.658;2024-01-11T04:23:59;95968.56;;;-17.05;45.19
42727;BME280;28372;56.832;60.658;2024-01-11T04:26:28;95972.44;;;-17.25;43.79
42727;BME280;28372;56.832;60.658;2024-01-11T04:28:57;95958.22;;;-17.28;44.18
42727;BME280;28372;56.832;60.658;2024-01-11T04:31:27;95957.53;;;-17.40;43.98
42727;BME280;28372;56.832;60.658;2024-01-11T04:33:55;95956.03;;;-17.36;43.85
42727;BME280;28372;56.832;60.658;2024-01-11T04:36:24;95971.66;;;-17.26;43.58
42727;BME280;28372;56.832;60.658;2024-01-11T04:38:54;95974.25;;;-17.26;46.05
42727;BME280;28372;56.832;60.658;2024-01-11T04:41:22;95970.25;;;-17.16;46.94
42727;BME280;28372;56.832;60.658;2024-01-11T04:43:50;95950.47;;;-17.05;45.66
42727;BME280;28372;56.832;60.658;2024-01-11T04:46:22;95978.44;;;-16.75;45.14
42727;BME280;28372;56.832;60.658;2024-01-11T04:48:52;95974.66;;;-16.67;45.91
42727;BME280;28372;56.832;60.658;2024-01-11T04:51:21;95976.63;;;-16.52;47.59
42727;BME280;28372;56.832;60.658;2024-01-11T04:53:52;95984.03;;;-16.34;44.80
42727;BME280;28372;56.832;60.658;2024-01-11T04:56:21;95975.59;;;-16.24;47.18
42727;BME280;28372;56.832;60.658;2024-01-11T04:58:49;95975.16;;;-16.16;44.45
42727;BME280;28372;56.832;60.658;2024-01-11T05:01:18;95983.69;;;-15.88;46.33
42727;BME280;28372;56.832;60.658;2024-01-11T05:03:47;96003.84;;;-15.58;45.25
42727;BME280;28372;56.832;60.658;2024-01-11T05:06:21;96012.34;;;-15.25;44.93
42727;BME280;28372;56.832;60.658;2024-01-11T05:08:50;95987.00;;;-15.12;45.85
42727;BME280;28372;56.832;60.658;2024-01-11T05:11:21;96020.34;;;-14.89;45.65
42727;BME280;28372;56.832;60.658;2024-01-11T05:13:53;95992.84;;;-14.85;45.34
42727;BME280;28372;56.832;60.658;2024-01-11T05:16:23;96018.59;;;-14.57;44.10
42727;BME280;28372;56.832;60.658;2024-01-11T05:18:52;96002.81;;;-14.51;44.70
42727;BME280;28372;56.832;60.658;2024-01-11T05:21:21;96008.03;;;-14.35;42.43
42727;BME280;28372;56.832;60.658;2024-01-11T05:23:49;96012.22;;;-14.29;41.63
42727;BME280;28372;56.832;60.658;2024-01-11T05:26:18;96027.84;;;-14.14;45.42
42727;BME280;28372;56.832;60.658;2024-01-11T05:28:46;96029.19;;;-13.90;45.88
42727;BME280;28372;56.832;60.658;2024-01-11T05:31:15;96016.19;;;-13.65;45.75
42727;BME280;28372;56.832;60.658;2024-01-11T05:33:46;96015.13;;;-13.22;50.18
42727;BME280;28372;56.832;60.658;2024-01-11T05:36:16;96023.34;;;-12.74;48.79
42727;BME280;28372;56.832;60.658;2024-01-11T05:38:46;96028.38;;;-12.33;50.44
42727;BME280;28372;56.832;60.658;2024-01-11T05:41:14;96035.41;;;-11.83;48.39
42727;BME280;28372;56.832;60.658;2024-01-11T05:43:42;96033.53;;;-11.43;46.42
42727;BME280;28372;56.832;60.658;2024-01-11T05:46:10;96031.41;;;-11.07;47.55
42727;BME280;28372;56.832;60.658;2024-01-11T05:48:38;96038.06;;;-10.66;52.32
42727;BME280;28372;56.832;60.658;2024-01-11T05:51:07;96021.75;;;-10.34;47.11
42727;BME280;28372;56.832;60.658;2024-01-11T05:53:35;96028.41;;;-9.84;49.68
42727;BME280;28372;56.832;60.658;2024-01-11T05:56:08;96032.22;;;-9.24;44.78
42727;BME280;28372;56.832;60.658;2024-01-11T05:58:37;96038.00;;;-9.08;42.81
42727;BME280;28372;56.832;60.658;2024-01-11T06:01:05;96045.72;;;-8.70;46.62
42727;BME280;28372;56.832;60.658;2024-01-11T06:03:38;96034.69;;;-8.53;44.55
42727;BME280;28372;56.832;60.658;2024-01-11T06:06:07;96028.03;;;-8.23;44.36
42727;BME280;28372;56.832;60.658;2024-01-11T06:08:37;96036.25;;;-7.88;44.64
42727;BME280;28372;56.832;60.658;2024-01-11T06:11:07;96024.94;;;-7.52;44.75
42727;BME280;28372;56.832;60.658;2024-01-11T06:13:35;96019.75;;;-7.20;45.26
42727;BME280;28372;56.832;60.658;2024-01-11T06:16:03;96048.88;;;-6.85;45.72
42727;BME280;28372;56.832;60.658;2024-01-11T06:18:31;96046.19;;;-6.63;44.60
42727;BME280;28372;56.832;60.658;2024-01-11T06:20:59;96052.66;;;-6.20;49.14
42727;BME280;28372;56.832;60.658;2024-01-11T06:23:27;96063.28;;;-5.76;46.87
42727;BME280;28372;56.832;60.658;2024-01-11T06:25:55;96034.31;;;-5.50;47.18
42727;BME280;28372;56.832;60.658;2024-01-11T06:28:23;96051.66;;;-5.14;41.04
42727;BME280;28372;56.832;60.658;2024-01-11T06:30:53;96047.28;;;-4.92;44.76
42727;BME280;28372;56.832;60.658;2024-01-11T06:33:23;96053.56;;;-4.67;48.74
42727;BME280;28372;56.832;60.658;2024-01-11T06:35:51;96049.38;;;-4.59;41.09
42727;BME280;28372;56.832;60.658;2024-01-11T06:38:19;96066.75;;;-4.20;43.69
42727;BME280;28372;56.832;60.658;2024-01-11T06:40:49;96051.13;;;-3.95;45.10
42727;BME280;28372;56.832;60.658;2024-01-11T06:43:17;96056.13;;;-3.51;44.99
42727;BME280;28372;56.832;60.658;2024-01-11T06:45:45;96059.13;;;-3.19;35.53
42727;BME280;28372;56.832;60.658;2024-01-11T06:48:13;96043.66;;;-3.08;42.78
42727;BME280;28372;56.832;60.658;2024-01-11T06:50:41;96046.22;;;-3.00;39.50
42727;BME280;28372;56.832;60.658;2024-01-11T06:53:09;96041.63;;;-2.78;38.38
42727;BME280;28372;56.832;60.658;2024-01-11T06:55:37;96046.81;;;-2.82;35.36
42727;BME280;28372;56.832;60.658;2024-01-11T06:58:04;96039.84;;;-2.86;33.42
42727;BME280;28372;56.832;60.658;2024-01-11T07:00:32;96052.38;;;-2.62;41.67
42727;BME280;28372;56.832;60.658;2024-01-11T07:03:00;96039.81;;;-2.41;42.07
42727;BME280;28372;56.832;60.658;2024-01-11T07:05:31;96049.78;;;-2.13;37.53
42727;BME280;28372;56.832;60.658;2024-01-11T07:08:00;96045.44;;;-2.05;32.15
42727;BME280;28372;56.832;60.658;2024-01-11T07:10:32;96067.88;;;-1.90;35.27
42727;BME280;28372;56.832;60.658;2024-01-11T07:13:01;96064.34;;;-1.94;36.29
42727;BME280;28372;56.832;60.658;2024-01-11T07:15:28;96058.28;;;-1.95;37.16
42727;BME280;28372;56.832;60.658;2024-01-11T07:17:58;96054.94;;;-2.04;36.43
42727;BME280;28372;56.832;60.658;2024-01-11T07:20:28;96070.41;;;-2.06;37.75
42727;BME280;28372;56.832;60.658;2024-01-11T07:22:56;96069.63;;;-2.19;33.31
42727;BME280;28372;56.832;60.658;2024-01-11T07:25:26;96073.63;;;-2.71;38.92
42727;BME280;28372;56.832;60.658;2024-01-11T07:27:55;96067.47;;;-2.96;34.62
42727;BME280;28372;56.832;60.658;2024-01-11T07:30:23;96064.56;;;-3.37;32.95
42727;BME280;28372;56.832;60.658;2024-01-11T07:32:51;96080.03;;;-3.69;37.26
42727;BME280;28372;56.832;60.658;2024-01-11T07:35:19;96086.22;;;-3.94;35.72
42727;BME280;28372;56.832;60.658;2024-01-11T07:37:48;96102.84;;;-4.33;36.28
42727;BME280;28372;56.832;60.658;2024-01-11T07:40:17;96103.81;;;-4.55;35.88
42727;BME280;28372;56.832;60.658;2024-01-11T07:42:45;96099.25;;;-4.93;35.20
42727;BME280;28372;56.832;60.658;2024-01-11T07:45:14;96105.63;;;-5.03;40.03
42727;BME280;28372;56.832;60.658;2024-01-11T07:47:42;96098.78;;;-5.39;32.49
42727;BME280;28372;56.832;60.658;2024-01-11T07:50:10;96086.50;;;-5.87;34.39
42727;BME280;28372;56.832;60.658;2024-01-11T07:52:39;96086.94;;;-5.94;33.19
42727;BME280;28372;56.832;60.658;2024-01-11T07:55:10;96084.94;;;-6.46;35.21
42727;BME280;28372;56.832;60.658;2024-01-11T07:57:40;96085.53;;;-6.80;34.44
42727;BME280;28372;56.832;60.658;2024-01-11T08:00:11;96105.84;;;-6.95;31.82
42727;BME280;28372;56.832;60.658;2024-01-11T08:02:39;96111.22;;;-7.23;32.01
42727;BME280;28372;56.832;60.658;2024-01-11T08:05:08;96107.59;;;-7.49;33.80
42727;BME280;28372;56.832;60.658;2024-01-11T08:07:36;96099.75;;;-7.63;33.43
42727;BME280;28372;56.832;60.658;2024-01-11T08:10:06;96095.13;;;-7.94;33.00
42727;BME280;28372;56.832;60.658;2024-01-11T08:12:36;96113.78;;;-8.10;34.63
42727;BME280;28372;56.832;60.658;2024-01-11T08:15:05;96103.13;;;-8.27;34.53
42727;BME280;28372;56.832;60.658;2024-01-11T08:17:33;96106.31;;;-8.44;32.38
42727;BME280;28372;56.832;60.658;2024-01-11T08:20:00;96107.44;;;-8.78;34.28
42727;BME280;28372;56.832;60.658;2024-01-11T08:22:29;96107.59;;;-8.88;34.44
42727;BME280;28372;56.832;60.658;2024-01-11T08:25:01;96106.56;;;-9.06;36.99
42727;BME280;28372;56.832;60.658;2024-01-11T08:27:33;96127.13;;;-9.14;35.95
42727;BME280;28372;56.832;60.658;2024-01-11T08:30:01;96118.38;;;-9.23;32.88
42727;BME280;28372;56.832;60.658;2024-01-11T08:32:32;96125.81;;;-9.49;36.06
42727;BME280;28372;56.832;60.658;2024-01-11T08:35:11;96107.41;;;-9.63;34.57
42727;BME280;28372;56.832;60.658;2024-01-11T08:37:39;96121.53;;;-9.83;37.89
42727;BME280;28372;56.832;60.658;2024-01-11T08:40:10;96106.41;;;-10.10;36.54
42727;BME280;28372;56.832;60.658;2024-01-11T08:42:39;96106.00;;;-10.42;33.84
42727;BME280;28372;56.832;60.658;2024-01-11T08:45:09;96125.47;;;-10.53;34.49
42727;BME280;28372;56.832;60.658;2024-01-11T08:47:37;96119.09;;;-10.71;34.42
42727;BME280;28372;56.832;60.658;2024-01-11T08:50:07;96112.56;;;-11.03;35.54
42727;BME280;28372;56.832;60.658;2024-01-11T08:52:37;96114.13;;;-11.37;35.28
42727;BME280;28372;56.832;60.658;2024-01-11T08:55:06;96115.22;;;-11.43;36.74
42727;BME280;28372;56.832;60.658;2024-01-11T08:57:35;96120.94;;;-11.41;37.27
42727;BME280;28372;56.832;60.658;2024-01-11T09:00:03;96102.66;;;-11.41;35.68
42727;BME280;28372;56.832;60.658;2024-01-11T09:02:33;96096.53;;;-11.60;37.52
42727;BME280;28372;56.832;60.658;2024-01-11T09:05:05;96096.50;;;-11.55;37.85
42727;BME280;28372;56.832;60.658;2024-01-11T09:07:35;96101.53;;;-11.64;37.13
42727;BME280;28372;56.832;60.658;2024-01-11T09:10:06;96098.63;;;-11.62;36.40
42727;BME280;28372;56.832;60.658;2024-01-11T09:12:36;96089.53;;;-11.70;37.74
42727;BME280;28372;56.832;60.658;2024-01-11T09:15:04;96088.09;;;-11.86;37.85
42727;BME280;28372;56.832;60.658;2024-01-11T09:17:34;96069.84;;;-11.86;38.90
42727;BME280;28372;56.832;60.658;2024-01-11T09:20:03;96072.41;;;-11.81;38.54
42727;BME280;28372;56.832;60.658;2024-01-11T09:22:32;96086.47;;;-11.77;38.08
42727;BME280;28372;56.832;60.658;2024-01-11T09:25:00;96091.47;;;-11.91;37.90
42727;BME280;28372;56.832;60.658;2024-01-11T09:27:29;96083.47;;;-12.00;39.23
42727;BME280;28372;56.832;60.658;2024-01-11T09:29:57;96101.34;;;-11.83;38.82
42727;BME280;28372;56.832;60.658;2024-01-11T09:32:26;96085.81;;;-11.98;41.86
42727;BME280;28372;56.832;60.658;2024-01-11T09:34:54;96102.41;;;-11.84;40.35
42727;BME280;28372;56.832;60.658;2024-01-11T09:37:22;96081.38;;;-11.98;39.30
42727;BME280;28372;56.832;60.658;2024-01-11T09:39:51;96102.16;;;-11.88;40.42
42727;BME280;28372;56.832;60.658;2024-01-11T09:42:18;96087.88;;;-11.95;38.90
42727;BME280;28372;56.832;60.658;2024-01-11T09:44:46;96120.72;;;-11.94;38.22
42727;BME280;28372;56.832;60.658;2024-01-11T09:47:15;96118.94;;;-11.99;39.23
42727;BME280;28372;56.832;60.658;2024-01-11T09:49:48;96113.75;;;-12.09;37.10
42727;BME280;28372;56.832;60.658;2024-01-11T09:52:19;96120.03;;;-12.10;37.79
42727;BME280;28372;56.832;60.658;2024-01-11T09:54:48;96103.66;;;-12.26;39.62
42727;BME280;28372;56.832;60.658;2024-01-11T09:57:21;96115.84;;;-12.11;37.55
42727;BME280;28372;56.832;60.658;2024-01-11T09:59:54;96114.81;;;-12.10;37.77
42727;BME280;28372;56.832;60.658;2024-01-11T10:02:27;96109.66;;;-12.36;37.66
42727;BME280;28372;56.832;60.658;2024-01-11T10:04:56;96113.88;;;-12.50;37.82
42727;BME280;28372;56.832;60.658;2024-01-11T10:07:25;96110.78;;;-12.68;39.41
42727;BME280;28372;56.832;60.658;2024-01-11T10:09:54;96111.63;;;-12.78;39.72
42727;BME280;28372;56.832;60.658;2024-01-11T10:12:21;96105.09;;;-12.85;39.75
42727;BME280;28372;56.832;60.658;2024-01-11T10:14:54;96127.22;;;-12.83;39.24
42727;BME280;28372;56.832;60.658;2024-01-11T10:17:22;96124.09;;;-12.80;42.26
42727;BME280;28372;56.832;60.658;2024-01-11T10:19:53;96117.06;;;-12.84;41.36
42727;BME280;28372;56.832;60.658;2024-01-11T10:22:23;96116.03;;;-12.88;41.34
42727;BME280;28372;56.832;60.658;2024-01-11T10:25:15;96093.63;;;-12.69;40.29
42727;BME280;28372;56.832;60.658;2024-01-11T10:27:46;96108.47;;;-12.75;40.97
42727;BME280;28372;56.832;60.658;2024-01-11T10:30:16;96103.00;;;-12.73;40.95
42727;BME280;28372;56.832;60.658;2024-01-11T10:32:46;96105.34;;;-12.66;40.86
42727;BME280;28372;56.832;60.658;2024-01-11T10:35:17;96103.25;;;-12.64;39.80
42727;BME280;28372;56.832;60.658;2024-01-11T10:37:50;96115.19;;;-12.58;39.86
42727;BME280;28372;56.832;60.658;2024-01-11T10:40:24;96114.19;;;-12.72;40.15
42727;BME280;28372;56.832;60.658;2024-01-11T10:42:57;96106.13;;;-12.66;38.75
42727;BME280;28372;56.832;60.658;2024-01-11T10:45:27;96127.69;;;-12.45;38.39
42727;BME280;28372;56.832;60.658;2024-01-11T10:48:01;96134.72;;;-12.45;38.61
42727;BME280;28372;56.832;60.658;2024-01-11T10:50:37;96140.97;;;-12.41;38.24
42727;BME280;28372;56.832;60.658;2024-01-11T10:55:50;96138.16;;;-12.70;40.82
42727;BME280;28372;56.832;60.658;2024-01-11T10:58:19;96143.34;;;-12.65;39.76
42727;BME280;28372;56.832;60.658;2024-01-11T11:00:50;96144.63;;;-12.63;39.43
42727;BME280;28372;56.832;60.658;2024-01-11T11:03:25;96135.78;;;-12.56;38.63
42727;BME280;28372;56.832;60.658;2024-01-11T11:05:53;96132.16;;;-12.66;38.48
42727;BME280;28372;56.832;60.658;2024-01-11T11:08:24;96150.88;;;-12.59;37.93
42727;BME280;28372;56.832;60.658;2024-01-11T11:10:56;96149.31;;;-12.60;38.61
42727;BME280;28372;56.832;60.658;2024-01-11T11:13:25;96150.59;;;-12.42;37.56
42727;BME280;28372;56.832;60.658;2024-01-11T11:15:54;96144.41;;;-12.71;37.63
42727;BME280;28372;56.832;60.658;2024-01-11T11:18:28;96155.59;;;-12.61;36.72
42727;BME280;28372;56.832;60.658;2024-01-11T11:20:56;96143.06;;;-12.59;37.33
42727;BME280;28372;56.832;60.658;2024-01-11T11:23:25;96170.19;;;-12.80;37.26
42727;BME280;28372;56.832;60.658;2024-01-11T11:25:55;96146.75;;;-13.06;37.78
42727;BME280;28372;56.832;60.658;2024-01-11T11:28:26;96127.22;;;-13.29;37.57
42727;BME280;28372;56.832;60.658;2024-01-11T11:30:54;96146.75;;;-13.11;37.56
42727;BME280;28372;56.832;60.658;2024-01-11T11:33:27;96150.13;;;-12.95;37.23
42727;BME280;28372;56.832;60.658;2024-01-11T11:35:59;96140.50;;;-13.15;37.75
42727;BME280;28372;56.832;60.658;2024-01-11T11:38:29;96149.63;;;-13.28;37.94
42727;BME280;28372;56.832;60.658;2024-01-11T11:41:01;96164.69;;;-13.46;38.17
42727;BME280;28372;56.832;60.658;2024-01-11T11:43:32;96159.44;;;-13.61;39.14
42727;BME280;28372;56.832;60.658;2024-01-11T11:46:00;96150.59;;;-13.75;39.51
42727;BME280;28372;56.832;60.658;2024-01-11T11:48:51;96148.53;;;-13.58;38.79
42727;BME280;28372;56.832;60.658;2024-01-11T11:51:21;96132.38;;;-13.70;38.51
42727;BME280;28372;56.832;60.658;2024-01-11T11:53:54;96126.88;;;-13.89;37.97
42727;BME280;28372;56.832;60.658;2024-01-11T11:56:23;96137.00;;;-13.98;39.56
42727;BME280;28372;56.832;60.658;2024-01-11T11:58:52;96132.28;;;-14.01;38.89
42727;BME280;28372;56.832;60.658;2024-01-11T12:01:25;96156.25;;;-13.89;39.17
42727;BME280;28372;56.832;60.658;2024-01-11T12:03:53;96145.28;;;-14.06;38.82
42727;BME280;28372;56.832;60.658;2024-01-11T12:06:22;96134.31;;;-14.19;39.19
42727;BME280;28372;56.832;60.658;2024-01-11T12:08:55;96145.88;;;-14.47;39.98
42727;BME280;28372;56.832;60.658;2024-01-11T12:11:27;96154.63;;;-14.58;40.44
42727;BME280;28372;56.832;60.658;2024-01-11T12:13:55;96144.50;;;-14.65;41.47
42727;BME280;28372;56.832;60.658;2024-01-11T12:16:25;96147.88;;;-14.59;40.90
42727;BME280;28372;56.832;60.658;2024-01-11T12:18:55;96142.19;;;-14.56;40.97
42727;BME280;28372;56.832;60.658;2024-01-11T12:21:26;96141.34;;;-14.72;41.50
42727;BME280;28372;56.832;60.658;2024-01-11T12:23:54;96136.91;;;-14.72;40.10
42727;BME280;28372;56.832;60.658;2024-01-11T12:26:25;96148.97;;;-14.45;40.33
42727;BME280;28372;56.832;60.658;2024-01-11T12:28:53;96149.44;;;-14.58;40.67
42727;BME280;28372;56.832;60.658;2024-01-11T12:31:21;96129.91;;;-14.76;40.44
42727;BME280;28372;56.832;60.658;2024-01-11T12:33:50;96131.22;;;-14.69;40.70
42727;BME280;28372;56.832;60.658;2024-01-11T12:36:19;96117.50;;;-14.59;39.91
42727;BME280;28372;56.832;60.658;2024-01-11T12:38:47;96127.09;;;-14.65;40.72
42727;BME280;28372;56.832;60.658;2024-01-11T12:41:21;96118.53;;;-14.65;41.79
42727;BME280;28372;56.832;60.658;2024-01-11T12:43:52;96141.16;;;-14.55;40.01
42727;BME280;28372;56.832;60.658;2024-01-11T12:46:22;96143.19;;;-14.57;41.51
42727;BME280;28372;56.832;60.658;2024-01-11T12:48:51;96141.19;;;-14.45;39.69
42727;BME280;28372;56.832;60.658;2024-01-11T12:51:20;96144.00;;;-14.57;40.54
42727;BME280;28372;56.832;60.658;2024-01-11T12:53:52;96134.63;;;-14.68;41.21
42727;BME280;28372;56.832;60.658;2024-01-11T12:56:24;96141.09;;;-14.60;41.32
42727;BME280;28372;56.832;60.658;2024-01-11T12:59:05;96139.41;;;-14.39;41.21